Time;durP1;ratioP1;P1;durP2;ratioP2;P2;SDS_P1;SDS_P2;PMS_P1;PMS_P2;Temp;Humidity;BMP_temperature;BMP_pressure;BME280_temperature;BME280_humidity;BME280_pressure;Samples;Min_cycle;Max_cycle;Signal;HPM_P1;HPM_P2
2023/12/17 00:02:24;;;;;;;16.53;7.10;;;2.10;99.90;;;;;;4947370;29;20556;-86
2023/12/17 00:04:49;;;;;;;15.27;7.67;;;2.10;99.90;;;;;;4954039;28;20189;-86
2023/12/17 00:07:15;;;;;;;15.40;6.80;;;2.10;99.90;;;;;;4955397;28;20182;-86
2023/12/17 00:09:51;;;;;;;14.03;7.27;;;2.00;99.90;;;;;;4949059;29;20213;-86
2023/12/17 00:12:16;;;;;;;12.83;7.17;;;2.00;99.90;;;;;;4953974;29;20181;-86
2023/12/17 00:14:42;;;;;;;16.70;7.40;;;1.90;99.90;;;;;;4954895;29;20216;-86
2023/12/17 00:17:08;;;;;;;13.53;6.43;;;1.90;99.90;;;;;;4953825;28;20238;-86
2023/12/17 00:19:33;;;;;;;12.93;6.67;;;1.90;99.90;;;;;;4948103;28;20208;-86
2023/12/17 00:21:59;;;;;;;10.70;7.73;;;1.80;99.90;;;;;;4957194;28;20205;-86
2023/12/17 00:24:24;;;;;;;16.60;7.87;;;1.70;99.90;;;;;;4950508;29;20209;-86
2023/12/17 00:26:50;;;;;;;13.73;7.17;;;1.80;99.90;;;;;;4957726;29;20182;-86
2023/12/17 00:29:17;;;;;;;15.50;6.90;;;1.80;99.90;;;;;;4957313;28;20206;-86
2023/12/17 00:31:42;;;;;;;14.60;6.80;;;1.90;99.90;;;;;;4958293;29;20186;-86
2023/12/17 00:34:08;;;;;;;15.17;7.17;;;1.90;99.90;;;;;;4957459;28;20284;-86
2023/12/17 00:36:33;;;;;;;14.00;6.77;;;1.90;99.90;;;;;;4951669;29;20200;-86
2023/12/17 00:38:59;;;;;;;15.37;6.27;;;1.90;99.90;;;;;;4957503;28;20225;-86
2023/12/17 00:41:24;;;;;;;17.77;7.17;;;1.90;99.90;;;;;;4950474;29;20178;-86
2023/12/17 00:43:50;;;;;;;15.30;7.30;;;1.90;99.90;;;;;;4957314;29;20253;-86
2023/12/17 00:46:16;;;;;;;14.30;6.87;;;1.90;99.90;;;;;;4957151;29;20185;-86
2023/12/17 00:48:41;;;;;;;15.97;6.93;;;1.90;99.90;;;;;;4952958;29;20212;-86
2023/12/17 00:51:11;;;;;;;15.07;6.70;;;2.00;99.90;;;;;;4957448;28;20281;-86
2023/12/17 00:53:36;;;;;;;12.60;6.17;;;1.90;99.90;;;;;;4958296;29;20185;-86
2023/12/17 00:59:38;;;;;;;12.07;6.37;;;1.90;99.90;;;;;;4958374;28;20213;-86
2023/12/17 01:02:15;;;;;;;14.43;6.40;;;2.00;99.90;;;;;;4955545;29;20185;-86
2023/12/17 01:04:41;;;;;;;13.87;7.33;;;2.00;99.90;;;;;;4952296;29;20268;-86
2023/12/17 01:07:06;;;;;;;12.73;6.17;;;2.00;99.90;;;;;;4957193;28;20220;-86
2023/12/17 01:09:32;;;;;;;11.37;6.07;;;2.10;99.90;;;;;;4951106;29;20215;-86
2023/12/17 01:11:59;;;;;;;9.43;6.07;;;2.10;99.90;;;;;;4956758;29;20205;-86
2023/12/17 01:14:24;;;;;;;10.50;5.63;;;2.20;99.90;;;;;;4949817;29;20244;-86
2023/12/17 01:20:31;;;;;;;11.50;5.93;;;2.20;99.90;;;;;;4957637;29;20284;-87
2023/12/17 01:22:57;;;;;;;10.93;6.27;;;2.20;99.90;;;;;;4954340;29;20193;-87
2023/12/17 01:25:22;;;;;;;12.43;6.23;;;2.20;99.90;;;;;;4950145;29;20177;-87
2023/12/17 01:27:48;;;;;;;10.87;5.97;;;2.20;99.90;;;;;;4957207;28;20195;-87
2023/12/17 01:30:13;;;;;;;14.27;7.00;;;2.20;99.90;;;;;;4957398;28;20206;-86
2023/12/17 01:32:39;;;;;;;15.90;6.47;;;2.20;99.90;;;;;;4951743;29;20190;-87
2023/12/17 01:35:07;;;;;;;17.60;6.20;;;2.20;99.90;;;;;;4957120;28;20218;-87
2023/12/17 01:37:33;;;;;;;15.53;6.47;;;2.20;99.90;;;;;;4951202;29;20181;-86
2023/12/17 01:39:58;;;;;;;10.97;5.83;;;2.20;99.90;;;;;;4957473;28;20202;-86
2023/12/17 01:42:27;;;;;;;11.53;5.80;;;2.20;99.90;;;;;;4949682;29;20178;-86
2023/12/17 01:44:53;;;;;;;12.77;6.23;;;2.30;99.90;;;;;;4957503;28;20170;-86
2023/12/17 01:47:45;;;;;;;14.07;6.50;;;2.30;99.90;;;;;;4948823;29;20177;-86
2023/12/17 01:50:11;;;;;;;12.63;6.07;;;2.40;99.90;;;;;;4956811;29;20292;-86
2023/12/17 01:52:38;;;;;;;8.40;5.47;;;2.50;99.90;;;;;;4950801;29;20188;-86
2023/12/17 01:55:05;;;;;;;12.00;6.67;;;2.60;99.90;;;;;;4956580;28;20216;-86
2023/12/17 01:57:31;;;;;;;15.63;6.43;;;2.60;99.90;;;;;;4949842;29;20173;-86
2023/12/17 02:00:03;;;;;;;9.97;5.77;;;2.70;99.90;;;;;;4955945;28;20200;-86
2023/12/17 02:20:29;;;;;;;14.00;7.37;;;2.90;99.90;;;;;;4936645;29;20238;-75
2023/12/17 02:22:57;;;;;;;12.10;7.03;;;3.00;99.90;;;;;;4938576;29;20174;-75
2023/12/17 02:25:24;;;;;;;15.17;7.43;;;3.00;99.90;;;;;;4921168;29;20182;-75
2023/12/17 02:27:49;;;;;;;15.67;6.77;;;3.00;99.90;;;;;;4937918;29;20261;-75
2023/12/17 02:30:15;;;;;;;12.77;7.13;;;2.90;99.90;;;;;;4938266;29;20312;-75
2023/12/17 02:32:41;;;;;;;13.63;6.93;;;3.00;99.90;;;;;;4921757;29;20214;-75
2023/12/17 02:35:07;;;;;;;18.00;6.63;;;3.00;99.90;;;;;;4937367;29;20274;-75
2023/12/17 02:37:32;;;;;;;12.50;6.60;;;3.10;99.90;;;;;;4938523;29;20198;-75
2023/12/17 02:39:58;;;;;;;12.97;6.37;;;3.10;99.90;;;;;;4937486;29;20186;-75
2023/12/17 02:42:23;;;;;;;13.70;6.37;;;3.20;99.90;;;;;;4922399;29;20182;-75
2023/12/17 02:44:49;;;;;;;11.13;6.63;;;3.20;99.90;;;;;;4921306;29;20269;-75
2023/12/17 02:47:14;;;;;;;12.17;6.83;;;3.10;99.90;;;;;;4921624;29;20198;-75
2023/12/17 02:49:43;;;;;;;13.13;6.93;;;3.10;99.90;;;;;;4921529;29;20178;-75
2023/12/17 02:52:08;;;;;;;10.83;6.67;;;3.10;99.90;;;;;;4920074;29;20190;-76
2023/12/17 02:54:35;;;;;;;18.40;7.00;;;3.20;99.90;;;;;;4936102;29;20301;-76
2023/12/17 02:57:00;;;;;;;14.23;6.33;;;3.10;99.90;;;;;;4936947;29;20194;-76
2023/12/17 02:59:26;;;;;;;10.93;6.10;;;3.20;99.90;;;;;;4936267;29;20185;-76
2023/12/17 03:01:52;;;;;;;12.73;6.40;;;3.20;99.90;;;;;;4936866;29;20203;-76
2023/12/17 03:04:17;;;;;;;13.80;6.83;;;3.20;99.90;;;;;;4920882;29;20193;-76
2023/12/17 03:06:43;;;;;;;12.87;6.20;;;3.10;99.90;;;;;;4920449;29;20210;-76
2023/12/17 03:09:10;;;;;;;12.30;5.80;;;3.20;99.90;;;;;;4919794;29;20696;-76
2023/12/17 03:11:36;;;;;;;12.77;6.57;;;3.30;99.90;;;;;;4920163;29;20518;-76
2023/12/17 03:14:02;;;;;;;13.87;6.47;;;3.40;99.90;;;;;;4935712;29;20217;-76
2023/12/17 03:16:29;;;;;;;10.77;6.73;;;3.40;99.90;;;;;;4935716;29;20281;-76
2023/12/17 03:18:54;;;;;;;10.57;5.90;;;3.50;99.90;;;;;;4935747;29;20222;-76
2023/12/17 03:21:23;;;;;;;14.63;6.97;;;3.50;99.90;;;;;;4919442;29;20265;-76
2023/12/17 03:23:49;;;;;;;12.50;6.47;;;3.60;99.90;;;;;;4935328;29;20185;-75
2023/12/17 03:26:15;;;;;;;10.60;5.93;;;3.70;99.90;;;;;;4919332;29;20197;-75
2023/12/17 03:28:40;;;;;;;11.80;6.37;;;3.80;99.90;;;;;;4919667;29;20181;-75
2023/12/17 03:31:06;;;;;;;11.27;5.90;;;3.80;99.90;;;;;;4919674;29;20174;-75
2023/12/17 03:33:32;;;;;;;15.17;6.37;;;3.80;99.90;;;;;;4936366;29;20178;-75
2023/12/17 03:35:57;;;;;;;14.77;6.80;;;3.80;99.90;;;;;;4919297;29;20276;-75
2023/12/17 03:38:23;;;;;;;10.13;6.57;;;3.90;99.90;;;;;;4919298;29;20189;-75
2023/12/17 03:40:48;;;;;;;14.17;7.10;;;4.00;99.90;;;;;;4919795;29;20221;-75
2023/12/17 03:43:14;;;;;;;15.40;6.90;;;3.90;99.90;;;;;;4919237;29;20217;-75
2023/12/17 03:45:39;;;;;;;13.87;6.83;;;3.90;99.90;;;;;;4919946;29;20213;-75
2023/12/17 03:48:05;;;;;;;12.63;6.83;;;4.00;99.90;;;;;;4919556;29;20220;-75
2023/12/17 03:50:31;;;;;;;13.80;7.70;;;3.90;99.90;;;;;;4935888;29;20610;-75
2023/12/17 03:52:56;;;;;;;16.67;8.10;;;3.90;99.90;;;;;;4934969;29;20189;-75
2023/12/17 03:55:22;;;;;;;16.90;7.43;;;3.90;99.90;;;;;;4920584;29;20224;-75
2023/12/17 03:57:48;;;;;;;20.93;7.60;;;4.00;99.90;;;;;;4923046;29;20254;-75
2023/12/17 04:00:14;;;;;;;11.73;7.60;;;4.00;99.90;;;;;;4938890;29;20196;-75
2023/12/17 04:02:40;;;;;;;14.50;7.23;;;4.00;99.90;;;;;;4922992;29;20263;-75
2023/12/17 04:05:07;;;;;;;12.90;7.23;;;4.00;99.90;;;;;;4923208;29;20194;-75
2023/12/17 04:07:33;;;;;;;12.43;8.20;;;4.00;99.90;;;;;;4939923;29;20277;-75
2023/12/17 04:10:00;;;;;;;13.60;7.90;;;4.00;99.90;;;;;;4923716;29;20276;-75
2023/12/17 04:12:26;;;;;;;16.60;8.50;;;4.00;99.90;;;;;;4922841;29;20241;-75
2023/12/17 04:14:52;;;;;;;15.77;7.50;;;4.00;99.90;;;;;;4938575;29;20304;-75
2023/12/17 04:17:17;;;;;;;11.70;7.30;;;4.10;99.90;;;;;;4940013;29;20217;-75
2023/12/17 04:19:43;;;;;;;15.50;7.70;;;4.10;99.90;;;;;;4939001;29;20374;-75
2023/12/17 04:22:08;;;;;;;14.03;7.50;;;4.10;99.90;;;;;;4938571;29;20185;-75
2023/12/17 04:24:34;;;;;;;15.83;8.53;;;4.10;99.90;;;;;;4938428;29;20186;-75
2023/12/17 04:26:59;;;;;;;12.80;7.70;;;4.10;99.90;;;;;;4938725;29;20205;-75
2023/12/17 04:29:25;;;;;;;15.13;7.60;;;4.10;99.90;;;;;;4939487;29;20194;-75
2023/12/17 04:31:51;;;;;;;21.03;8.43;;;4.10;99.90;;;;;;4923563;29;20193;-76
2023/12/17 04:34:16;;;;;;;15.13;8.30;;;4.10;99.90;;;;;;4922721;29;20213;-76
2023/12/17 04:36:43;;;;;;;16.43;7.77;;;4.10;99.90;;;;;;4922953;29;20290;-76
2023/12/17 04:39:12;;;;;;;16.10;8.23;;;4.20;99.90;;;;;;4922673;29;20173;-76
2023/12/17 04:41:39;;;;;;;14.23;7.53;;;4.10;99.90;;;;;;4922411;29;20230;-76
2023/12/17 04:44:05;;;;;;;14.30;7.93;;;4.10;99.90;;;;;;4938143;29;20183;-76
2023/12/17 04:46:31;;;;;;;16.07;8.10;;;4.10;99.90;;;;;;4939231;29;20222;-76
2023/12/17 04:48:57;;;;;;;13.93;8.27;;;4.10;99.90;;;;;;4939243;29;20234;-76
2023/12/17 04:51:23;;;;;;;16.13;8.50;;;4.10;99.90;;;;;;4922088;29;20189;-76
2023/12/17 04:53:49;;;;;;;17.83;8.83;;;4.10;99.90;;;;;;4938247;29;20219;-76
2023/12/17 04:56:15;;;;;;;17.87;8.90;;;4.00;99.90;;;;;;4922091;29;20246;-76
2023/12/17 04:58:41;;;;;;;14.50;8.83;;;4.00;99.90;;;;;;4922845;29;20186;-76
2023/12/17 05:01:07;;;;;;;16.67;8.90;;;4.00;99.90;;;;;;4937807;29;20182;-76
2023/12/17 05:03:32;;;;;;;19.43;11.03;;;4.10;99.90;;;;;;4922046;29;20229;-76
2023/12/17 05:05:58;;;;;;;15.03;9.23;;;4.00;99.90;;;;;;4921735;29;20228;-76
2023/12/17 05:08:23;;;;;;;16.47;8.47;;;4.10;99.90;;;;;;4937809;29;20237;-76
2023/12/17 05:10:49;;;;;;;16.40;8.60;;;4.10;99.90;;;;;;4937714;29;20205;-76
2023/12/17 05:13:15;;;;;;;16.47;8.77;;;4.00;99.90;;;;;;4921910;29;20221;-76
